Cheyenne River Reservation, South Dakota
Current Conditions -  °F | °C
As of 1:52 PM on Saturday 20 Dec 2014 (Local Time) from KMBG Reporting Station
Broken Clouds Broken Clouds  
Wind Chill: 23°   Ceiling: 6500
Heat Index: 32°   Visibility: 10mi
Dew Point: 28°   Wind: 12mph
Humidity: 85%   Direction: 150°SSE
Pressure: 29.84"   Gusts: NA
Location:  45.0005°N, 101.234°W
Report Text: KMBG 202052Z AUTO 15010KT 10SM BKN065 00/M02 A2984 RMK AO2 SLP126 T00001022 56019
Loading
Personal Weather Stations






























Interactive Weather Map New forecast layout! Learn more

10-Day Weather Forecast

Advertisements
Track Severe Weather on mobile